sensor_id;sensor_type;location;lat;lon;timestamp;P1;durP1;ratioP1;P2;durP2;ratioP2
19944;SDS011;10134;50.952;6.930;2023-05-17T00:00:49;3.03;;;1.45;;
19944;SDS011;10134;50.952;6.930;2023-05-17T00:03:17;3.90;;;1.45;;
19944;SDS011;10134;50.952;6.930;2023-05-17T00:05:45;3.63;;;1.50;;
19944;SDS011;10134;50.952;6.930;2023-05-17T00:08:12;3.33;;;1.50;;
19944;SDS011;10134;50.952;6.930;2023-05-17T00:10:39;5.60;;;2.08;;
19944;SDS011;10134;50.952;6.930;2023-05-17T00:13:07;10.70;;;1.70;;
19944;SDS011;10134;50.952;6.930;2023-05-17T00:15:34;2.33;;;1.42;;
19944;SDS011;10134;50.952;6.930;2023-05-17T00:18:02;4.40;;;1.45;;
19944;SDS011;10134;50.952;6.930;2023-05-17T00:20:29;4.75;;;1.67;;
19944;SDS011;10134;50.952;6.930;2023-05-17T00:22:57;3.20;;;1.50;;
19944;SDS011;10134;50.952;6.930;2023-05-17T00:25:24;6.30;;;1.50;;
19944;SDS011;10134;50.952;6.930;2023-05-17T00:27:52;6.50;;;3.10;;
19944;SDS011;10134;50.952;6.930;2023-05-17T00:30:19;1.85;;;1.23;;
19944;SDS011;10134;50.952;6.930;2023-05-17T00:32:47;3.20;;;1.48;;
19944;SDS011;10134;50.952;6.930;2023-05-17T00:35:14;3.25;;;1.80;;
19944;SDS011;10134;50.952;6.930;2023-05-17T00:37:43;11.27;;;1.52;;
19944;SDS011;10134;50.952;6.930;2023-05-17T00:40:13;4.90;;;1.55;;
19944;SDS011;10134;50.952;6.930;2023-05-17T00:42:44;3.40;;;1.40;;
19944;SDS011;10134;50.952;6.930;2023-05-17T00:45:11;7.40;;;1.83;;
19944;SDS011;10134;50.952;6.930;2023-05-17T00:47:39;3.58;;;1.70;;
19944;SDS011;10134;50.952;6.930;2023-05-17T00:50:06;6.47;;;1.80;;
19944;SDS011;10134;50.952;6.930;2023-05-17T00:52:34;6.28;;;1.77;;
19944;SDS011;10134;50.952;6.930;2023-05-17T00:55:02;5.32;;;1.77;;
19944;SDS011;10134;50.952;6.930;2023-05-17T00:57:29;3.38;;;1.48;;
19944;SDS011;10134;50.952;6.930;2023-05-17T01:00:00;4.30;;;1.60;;
19944;SDS011;10134;50.952;6.930;2023-05-17T01:02:27;4.72;;;1.70;;
19944;SDS011;10134;50.952;6.930;2023-05-17T01:04:55;3.50;;;1.48;;
19944;SDS011;10134;50.952;6.930;2023-05-17T01:07:23;7.07;;;2.00;;
19944;SDS011;10134;50.952;6.930;2023-05-17T01:09:51;3.58;;;2.30;;
19944;SDS011;10134;50.952;6.930;2023-05-17T01:12:31;6.65;;;2.08;;
19944;SDS011;10134;50.952;6.930;2023-05-17T01:15:18;2.00;;;1.40;;
19944;SDS011;10134;50.952;6.930;2023-05-17T01:18:08;5.32;;;2.10;;
19944;SDS011;10134;50.952;6.930;2023-05-17T01:20:50;6.70;;;2.00;;
19944;SDS011;10134;50.952;6.930;2023-05-17T01:28:36;3.83;;;1.90;;
19944;SDS011;10134;50.952;6.930;2023-05-17T01:31:05;4.45;;;1.80;;
19944;SDS011;10134;50.952;6.930;2023-05-17T01:33:36;4.47;;;2.10;;
19944;SDS011;10134;50.952;6.930;2023-05-17T01:36:04;7.38;;;1.75;;
19944;SDS011;10134;50.952;6.930;2023-05-17T01:38:33;6.90;;;2.00;;
19944;SDS011;10134;50.952;6.930;2023-05-17T01:43:40;4.72;;;1.90;;
19944;SDS011;10134;50.952;6.930;2023-05-17T01:54:35;6.45;;;2.10;;
19944;SDS011;10134;50.952;6.930;2023-05-17T01:57:07;4.72;;;2.50;;
19944;SDS011;10134;50.952;6.930;2023-05-17T01:59:37;5.35;;;2.75;;
19944;SDS011;10134;50.952;6.930;2023-05-17T02:02:05;5.70;;;1.98;;
19944;SDS011;10134;50.952;6.930;2023-05-17T02:04:35;5.28;;;2.00;;
19944;SDS011;10134;50.952;6.930;2023-05-17T02:07:02;3.20;;;2.00;;
19944;SDS011;10134;50.952;6.930;2023-05-17T02:09:30;7.82;;;2.60;;
19944;SDS011;10134;50.952;6.930;2023-05-17T02:11:58;6.80;;;2.60;;
19944;SDS011;10134;50.952;6.930;2023-05-17T02:14:25;7.18;;;2.40;;
19944;SDS011;10134;50.952;6.930;2023-05-17T02:16:52;5.20;;;2.33;;
19944;SDS011;10134;50.952;6.930;2023-05-17T02:19:19;8.23;;;2.55;;
19944;SDS011;10134;50.952;6.930;2023-05-17T02:21:47;4.75;;;2.88;;
19944;SDS011;10134;50.952;6.930;2023-05-17T02:24:14;5.38;;;2.30;;
19944;SDS011;10134;50.952;6.930;2023-05-17T02:26:41;2.33;;;1.65;;
19944;SDS011;10134;50.952;6.930;2023-05-17T02:29:09;4.95;;;2.40;;
19944;SDS011;10134;50.952;6.930;2023-05-17T02:31:39;6.65;;;2.83;;
19944;SDS011;10134;50.952;6.930;2023-05-17T02:34:06;5.40;;;3.30;;
19944;SDS011;10134;50.952;6.930;2023-05-17T02:36:34;2.80;;;2.13;;
19944;SDS011;10134;50.952;6.930;2023-05-17T02:39:01;9.50;;;3.40;;
19944;SDS011;10134;50.952;6.930;2023-05-17T02:41:30;8.00;;;3.42;;
19944;SDS011;10134;50.952;6.930;2023-05-17T02:43:57;6.65;;;3.33;;
19944;SDS011;10134;50.952;6.930;2023-05-17T02:46:27;7.85;;;2.90;;
19944;SDS011;10134;50.952;6.930;2023-05-17T02:48:55;8.20;;;3.20;;
19944;SDS011;10134;50.952;6.930;2023-05-17T02:51:22;5.47;;;2.78;;
19944;SDS011;10134;50.952;6.930;2023-05-17T02:53:49;6.88;;;3.03;;
19944;SDS011;10134;50.952;6.930;2023-05-17T02:56:17;5.55;;;2.70;;
19944;SDS011;10134;50.952;6.930;2023-05-17T02:58:45;7.60;;;3.08;;
19944;SDS011;10134;50.952;6.930;2023-05-17T03:01:12;8.55;;;3.53;;
19944;SDS011;10134;50.952;6.930;2023-05-17T03:03:39;5.95;;;2.78;;
19944;SDS011;10134;50.952;6.930;2023-05-17T03:06:07;7.40;;;3.05;;
19944;SDS011;10134;50.952;6.930;2023-05-17T03:08:34;5.25;;;3.33;;
19944;SDS011;10134;50.952;6.930;2023-05-17T03:11:02;6.68;;;2.92;;
19944;SDS011;10134;50.952;6.930;2023-05-17T03:13:29;10.30;;;3.67;;
19944;SDS011;10134;50.952;6.930;2023-05-17T03:15:57;8.85;;;3.63;;
19944;SDS011;10134;50.952;6.930;2023-05-17T03:18:25;7.10;;;3.17;;
19944;SDS011;10134;50.952;6.930;2023-05-17T03:20:52;10.02;;;3.55;;
19944;SDS011;10134;50.952;6.930;2023-05-17T03:23:20;8.27;;;3.90;;
19944;SDS011;10134;50.952;6.930;2023-05-17T03:25:54;6.00;;;3.28;;
19944;SDS011;10134;50.952;6.930;2023-05-17T03:28:22;9.40;;;3.75;;
19944;SDS011;10134;50.952;6.930;2023-05-17T03:30:50;8.25;;;3.10;;
19944;SDS011;10134;50.952;6.930;2023-05-17T03:33:18;5.80;;;3.10;;
19944;SDS011;10134;50.952;6.930;2023-05-17T03:35:46;8.65;;;3.63;;
19944;SDS011;10134;50.952;6.930;2023-05-17T03:38:13;11.77;;;4.55;;
19944;SDS011;10134;50.952;6.930;2023-05-17T03:40:41;15.73;;;7.35;;
19944;SDS011;10134;50.952;6.930;2023-05-17T03:43:08;11.07;;;4.20;;
19944;SDS011;10134;50.952;6.930;2023-05-17T03:45:36;8.83;;;3.77;;
19944;SDS011;10134;50.952;6.930;2023-05-17T03:48:04;9.18;;;3.88;;
19944;SDS011;10134;50.952;6.930;2023-05-17T03:50:32;7.18;;;3.90;;
19944;SDS011;10134;50.952;6.930;2023-05-17T03:53:00;13.13;;;4.63;;
19944;SDS011;10134;50.952;6.930;2023-05-17T03:55:27;7.95;;;3.78;;
19944;SDS011;10134;50.952;6.930;2023-05-17T03:57:55;12.63;;;4.68;;
19944;SDS011;10134;50.952;6.930;2023-05-17T04:00:23;8.20;;;4.20;;
19944;SDS011;10134;50.952;6.930;2023-05-17T04:02:55;11.15;;;3.95;;
19944;SDS011;10134;50.952;6.930;2023-05-17T04:05:23;10.40;;;4.43;;
19944;SDS011;10134;50.952;6.930;2023-05-17T04:07:51;10.75;;;4.60;;
19944;SDS011;10134;50.952;6.930;2023-05-17T04:10:19;17.48;;;5.15;;
19944;SDS011;10134;50.952;6.930;2023-05-17T04:12:46;9.82;;;4.70;;
19944;SDS011;10134;50.952;6.930;2023-05-17T04:15:14;13.23;;;5.07;;
19944;SDS011;10134;50.952;6.930;2023-05-17T04:17:42;11.60;;;5.00;;
19944;SDS011;10134;50.952;6.930;2023-05-17T04:20:10;10.40;;;4.65;;
19944;SDS011;10134;50.952;6.930;2023-05-17T04:22:38;13.18;;;4.82;;
19944;SDS011;10134;50.952;6.930;2023-05-17T04:25:07;13.80;;;5.28;;
19944;SDS011;10134;50.952;6.930;2023-05-17T04:27:35;13.45;;;5.22;;
19944;SDS011;10134;50.952;6.930;2023-05-17T04:30:06;10.52;;;5.05;;
19944;SDS011;10134;50.952;6.930;2023-05-17T04:32:33;17.65;;;6.20;;
19944;SDS011;10134;50.952;6.930;2023-05-17T04:35:01;11.10;;;5.32;;
19944;SDS011;10134;50.952;6.930;2023-05-17T04:37:29;11.70;;;5.25;;
19944;SDS011;10134;50.952;6.930;2023-05-17T04:40:01;12.90;;;5.78;;
19944;SDS011;10134;50.952;6.930;2023-05-17T04:42:31;11.95;;;5.28;;
19944;SDS011;10134;50.952;6.930;2023-05-17T04:44:58;12.07;;;5.18;;
19944;SDS011;10134;50.952;6.930;2023-05-17T04:47:28;15.65;;;6.13;;
19944;SDS011;10134;50.952;6.930;2023-05-17T04:49:56;12.55;;;6.15;;
19944;SDS011;10134;50.952;6.930;2023-05-17T04:52:23;12.95;;;5.82;;
19944;SDS011;10134;50.952;6.930;2023-05-17T04:54:51;13.32;;;5.32;;
19944;SDS011;10134;50.952;6.930;2023-05-17T04:57:20;13.27;;;6.55;;
19944;SDS011;10134;50.952;6.930;2023-05-17T04:59:53;16.15;;;5.93;;
19944;SDS011;10134;50.952;6.930;2023-05-17T05:02:20;9.25;;;5.25;;
19944;SDS011;10134;50.952;6.930;2023-05-17T05:04:48;12.18;;;5.78;;
19944;SDS011;10134;50.952;6.930;2023-05-17T05:07:16;11.35;;;5.63;;
19944;SDS011;10134;50.952;6.930;2023-05-17T05:09:45;10.23;;;6.22;;
19944;SDS011;10134;50.952;6.930;2023-05-17T05:12:13;19.63;;;6.07;;
19944;SDS011;10134;50.952;6.930;2023-05-17T05:14:41;12.88;;;6.68;;
19944;SDS011;10134;50.952;6.930;2023-05-17T05:17:09;9.02;;;5.80;;
19944;SDS011;10134;50.952;6.930;2023-05-17T05:19:38;11.25;;;6.30;;
19944;SDS011;10134;50.952;6.930;2023-05-17T05:22:06;8.88;;;6.35;;
19944;SDS011;10134;50.952;6.930;2023-05-17T05:24:36;14.80;;;6.35;;
19944;SDS011;10134;50.952;6.930;2023-05-17T05:27:03;16.25;;;6.13;;
19944;SDS011;10134;50.952;6.930;2023-05-17T05:29:33;14.18;;;8.25;;
19944;SDS011;10134;50.952;6.930;2023-05-17T05:32:00;21.63;;;6.20;;
19944;SDS011;10134;50.952;6.930;2023-05-17T05:34:30;15.10;;;6.95;;
19944;SDS011;10134;50.952;6.930;2023-05-17T05:36:58;16.88;;;6.70;;
19944;SDS011;10134;50.952;6.930;2023-05-17T05:39:26;12.55;;;5.90;;
19944;SDS011;10134;50.952;6.930;2023-05-17T05:41:53;18.77;;;6.22;;
19944;SDS011;10134;50.952;6.930;2023-05-17T05:44:21;19.50;;;6.45;;
19944;SDS011;10134;50.952;6.930;2023-05-17T05:46:51;15.55;;;6.82;;
19944;SDS011;10134;50.952;6.930;2023-05-17T05:49:19;14.98;;;7.00;;
19944;SDS011;10134;50.952;6.930;2023-05-17T05:51:46;16.10;;;7.20;;
19944;SDS011;10134;50.952;6.930;2023-05-17T05:54:15;15.20;;;7.00;;
19944;SDS011;10134;50.952;6.930;2023-05-17T05:56:43;19.02;;;6.63;;
19944;SDS011;10134;50.952;6.930;2023-05-17T05:59:12;17.10;;;6.82;;
19944;SDS011;10134;50.952;6.930;2023-05-17T06:01:40;19.02;;;7.82;;
19944;SDS011;10134;50.952;6.930;2023-05-17T06:04:07;17.23;;;6.97;;
19944;SDS011;10134;50.952;6.930;2023-05-17T06:06:34;17.83;;;6.80;;
19944;SDS011;10134;50.952;6.930;2023-05-17T06:09:03;10.45;;;6.43;;
19944;SDS011;10134;50.952;6.930;2023-05-17T06:11:32;17.73;;;7.82;;
19944;SDS011;10134;50.952;6.930;2023-05-17T06:13:59;16.45;;;6.97;;
19944;SDS011;10134;50.952;6.930;2023-05-17T06:16:27;17.13;;;8.55;;
19944;SDS011;10134;50.952;6.930;2023-05-17T06:18:54;17.67;;;7.97;;
19944;SDS011;10134;50.952;6.930;2023-05-17T06:21:22;17.10;;;9.13;;
19944;SDS011;10134;50.952;6.930;2023-05-17T06:23:49;23.13;;;9.85;;
19944;SDS011;10134;50.952;6.930;2023-05-17T06:26:16;26.15;;;10.60;;
19944;SDS011;10134;50.952;6.930;2023-05-17T06:28:44;23.08;;;11.15;;
19944;SDS011;10134;50.952;6.930;2023-05-17T06:31:11;26.67;;;11.45;;
19944;SDS011;10134;50.952;6.930;2023-05-17T06:33:39;24.55;;;10.45;;
19944;SDS011;10134;50.952;6.930;2023-05-17T06:36:06;24.65;;;10.57;;
19944;SDS011;10134;50.952;6.930;2023-05-17T06:38:34;26.30;;;11.48;;
19944;SDS011;10134;50.952;6.930;2023-05-17T06:41:01;23.63;;;10.25;;
19944;SDS011;10134;50.952;6.930;2023-05-17T06:43:28;17.00;;;10.40;;
19944;SDS011;10134;50.952;6.930;2023-05-17T06:46:03;26.55;;;10.77;;
19944;SDS011;10134;50.952;6.930;2023-05-17T06:48:30;22.95;;;9.07;;
19944;SDS011;10134;50.952;6.930;2023-05-17T06:50:58;14.95;;;8.63;;
19944;SDS011;10134;50.952;6.930;2023-05-17T06:53:27;17.60;;;8.48;;
19944;SDS011;10134;50.952;6.930;2023-05-17T06:55:54;15.93;;;8.50;;
19944;SDS011;10134;50.952;6.930;2023-05-17T06:58:22;16.02;;;7.43;;
19944;SDS011;10134;50.952;6.930;2023-05-17T07:00:49;18.92;;;8.25;;
19944;SDS011;10134;50.952;6.930;2023-05-17T07:03:17;14.07;;;6.38;;
19944;SDS011;10134;50.952;6.930;2023-05-17T07:05:44;17.25;;;5.65;;
19944;SDS011;10134;50.952;6.930;2023-05-17T07:08:12;11.75;;;5.88;;
19944;SDS011;10134;50.952;6.930;2023-05-17T07:10:41;10.80;;;4.82;;
19944;SDS011;10134;50.952;6.930;2023-05-17T07:13:08;11.70;;;5.30;;
19944;SDS011;10134;50.952;6.930;2023-05-17T07:15:36;17.33;;;6.45;;
19944;SDS011;10134;50.952;6.930;2023-05-17T07:18:03;12.95;;;5.65;;
19944;SDS011;10134;50.952;6.930;2023-05-17T07:20:31;14.23;;;5.53;;
19944;SDS011;10134;50.952;6.930;2023-05-17T07:22:58;12.95;;;5.97;;
19944;SDS011;10134;50.952;6.930;2023-05-17T07:25:26;12.93;;;5.95;;
19944;SDS011;10134;50.952;6.930;2023-05-17T07:27:54;10.18;;;5.35;;
19944;SDS011;10134;50.952;6.930;2023-05-17T07:30:21;12.02;;;5.20;;
19944;SDS011;10134;50.952;6.930;2023-05-17T07:32:48;13.57;;;4.90;;
19944;SDS011;10134;50.952;6.930;2023-05-17T07:35:16;9.60;;;5.55;;
19944;SDS011;10134;50.952;6.930;2023-05-17T07:37:47;14.00;;;4.30;;
19944;SDS011;10134;50.952;6.930;2023-05-17T07:40:14;10.07;;;5.03;;
19944;SDS011;10134;50.952;6.930;2023-05-17T07:42:42;9.20;;;4.03;;
19944;SDS011;10134;50.952;6.930;2023-05-17T07:45:09;9.73;;;4.45;;
19944;SDS011;10134;50.952;6.930;2023-05-17T07:47:37;9.27;;;4.18;;
19944;SDS011;10134;50.952;6.930;2023-05-17T07:50:04;10.10;;;3.17;;
19944;SDS011;10134;50.952;6.930;2023-05-17T07:52:32;10.48;;;4.20;;
19944;SDS011;10134;50.952;6.930;2023-05-17T07:54:59;12.65;;;3.92;;
19944;SDS011;10134;50.952;6.930;2023-05-17T07:57:26;9.13;;;3.00;;
19944;SDS011;10134;50.952;6.930;2023-05-17T07:59:54;10.57;;;3.75;;
19944;SDS011;10134;50.952;6.930;2023-05-17T08:02:21;7.80;;;2.97;;
19944;SDS011;10134;50.952;6.930;2023-05-17T08:04:48;7.70;;;2.75;;
19944;SDS011;10134;50.952;6.930;2023-05-17T08:07:16;8.63;;;2.78;;
19944;SDS011;10134;50.952;6.930;2023-05-17T08:09:44;8.60;;;3.63;;
19944;SDS011;10134;50.952;6.930;2023-05-17T08:12:11;8.88;;;2.50;;
19944;SDS011;10134;50.952;6.930;2023-05-17T08:14:38;9.48;;;2.17;;
19944;SDS011;10134;50.952;6.930;2023-05-17T08:17:06;6.15;;;2.00;;
19944;SDS011;10134;50.952;6.930;2023-05-17T08:19:33;8.55;;;2.00;;
19944;SDS011;10134;50.952;6.930;2023-05-17T08:22:01;5.40;;;2.42;;
19944;SDS011;10134;50.952;6.930;2023-05-17T08:24:29;9.90;;;2.40;;
19944;SDS011;10134;50.952;6.930;2023-05-17T08:26:56;5.57;;;2.08;;
19944;SDS011;10134;50.952;6.930;2023-05-17T08:29:24;4.22;;;2.00;;
19944;SDS011;10134;50.952;6.930;2023-05-17T08:31:53;6.15;;;2.33;;
19944;SDS011;10134;50.952;6.930;2023-05-17T08:34:21;9.18;;;2.45;;
19944;SDS011;10134;50.952;6.930;2023-05-17T08:36:49;7.97;;;1.98;;
19944;SDS011;10134;50.952;6.930;2023-05-17T08:39:17;7.65;;;1.95;;
19944;SDS011;10134;50.952;6.930;2023-05-17T08:41:46;8.00;;;2.15;;
19944;SDS011;10134;50.952;6.930;2023-05-17T08:44:14;4.15;;;1.90;;
19944;SDS011;10134;50.952;6.930;2023-05-17T08:46:45;5.40;;;1.55;;
19944;SDS011;10134;50.952;6.930;2023-05-17T08:49:20;5.50;;;1.55;;
19944;SDS011;10134;50.952;6.930;2023-05-17T08:51:52;8.00;;;1.73;;
19944;SDS011;10134;50.952;6.930;2023-05-17T08:54:21;9.95;;;2.40;;
19944;SDS011;10134;50.952;6.930;2023-05-17T08:56:48;6.20;;;2.17;;
19944;SDS011;10134;50.952;6.930;2023-05-17T08:59:19;6.88;;;1.90;;
19944;SDS011;10134;50.952;6.930;2023-05-17T09:01:48;6.78;;;2.15;;
19944;SDS011;10134;50.952;6.930;2023-05-17T09:04:19;4.55;;;2.47;;
19944;SDS011;10134;50.952;6.930;2023-05-17T09:06:48;7.18;;;2.53;;
19944;SDS011;10134;50.952;6.930;2023-05-17T09:09:16;8.18;;;1.85;;
19944;SDS011;10134;50.952;6.930;2023-05-17T09:11:44;10.63;;;2.38;;
19944;SDS011;10134;50.952;6.930;2023-05-17T09:14:13;6.32;;;2.25;;
19944;SDS011;10134;50.952;6.930;2023-05-17T09:16:43;10.88;;;2.40;;
19944;SDS011;10134;50.952;6.930;2023-05-17T09:19:13;5.53;;;1.58;;
19944;SDS011;10134;50.952;6.930;2023-05-17T09:21:45;8.43;;;2.20;;
19944;SDS011;10134;50.952;6.930;2023-05-17T09:24:13;9.52;;;1.77;;
19944;SDS011;10134;50.952;6.930;2023-05-17T09:26:44;3.45;;;1.95;;
19944;SDS011;10134;50.952;6.930;2023-05-17T09:29:12;6.95;;;2.13;;
19944;SDS011;10134;50.952;6.930;2023-05-17T09:31:41;6.68;;;1.83;;
19944;SDS011;10134;50.952;6.930;2023-05-17T09:34:09;11.18;;;2.65;;
19944;SDS011;10134;50.952;6.930;2023-05-17T09:36:37;7.88;;;1.98;;
19944;SDS011;10134;50.952;6.930;2023-05-17T09:39:08;5.97;;;2.10;;
19944;SDS011;10134;50.952;6.930;2023-05-17T09:41:42;10.13;;;2.17;;
19944;SDS011;10134;50.952;6.930;2023-05-17T09:44:12;5.40;;;1.40;;
19944;SDS011;10134;50.952;6.930;2023-05-17T09:46:41;5.32;;;1.83;;
19944;SDS011;10134;50.952;6.930;2023-05-17T09:49:13;16.35;;;2.40;;
19944;SDS011;10134;50.952;6.930;2023-05-17T09:51:42;5.00;;;2.05;;
19944;SDS011;10134;50.952;6.930;2023-05-17T09:54:13;7.65;;;2.15;;
19944;SDS011;10134;50.952;6.930;2023-05-17T09:56:40;7.32;;;1.70;;
19944;SDS011;10134;50.952;6.930;2023-05-17T09:59:12;10.70;;;1.75;;
19944;SDS011;10134;50.952;6.930;2023-05-17T10:01:41;3.47;;;1.30;;
19944;SDS011;10134;50.952;6.930;2023-05-17T10:04:11;9.57;;;1.55;;
19944;SDS011;10134;50.952;6.930;2023-05-17T10:06:40;11.23;;;2.22;;
19944;SDS011;10134;50.952;6.930;2023-05-17T10:09:17;9.63;;;1.70;;
19944;SDS011;10134;50.952;6.930;2023-05-17T10:11:48;4.07;;;2.13;;
19944;SDS011;10134;50.952;6.930;2023-05-17T10:14:20;5.00;;;1.60;;
19944;SDS011;10134;50.952;6.930;2023-05-17T10:16:53;5.72;;;2.30;;
19944;SDS011;10134;50.952;6.930;2023-05-17T10:19:21;6.85;;;1.52;;
19944;SDS011;10134;50.952;6.930;2023-05-17T10:21:51;8.98;;;1.73;;
19944;SDS011;10134;50.952;6.930;2023-05-17T10:24:19;5.85;;;1.90;;
19944;SDS011;10134;50.952;6.930;2023-05-17T10:26:50;3.22;;;1.27;;
19944;SDS011;10134;50.952;6.930;2023-05-17T10:29:18;7.57;;;1.70;;
19944;SDS011;10134;50.952;6.930;2023-05-17T10:31:48;6.05;;;2.40;;
19944;SDS011;10134;50.952;6.930;2023-05-17T10:34:17;6.85;;;1.73;;
19944;SDS011;10134;50.952;6.930;2023-05-17T10:36:47;5.82;;;1.73;;
19944;SDS011;10134;50.952;6.930;2023-05-17T10:39:15;4.38;;;1.67;;
19944;SDS011;10134;50.952;6.930;2023-05-17T10:41:43;5.53;;;1.75;;
19944;SDS011;10134;50.952;6.930;2023-05-17T10:44:14;15.70;;;3.20;;
19944;SDS011;10134;50.952;6.930;2023-05-17T10:46:53;9.63;;;2.78;;
19944;SDS011;10134;50.952;6.930;2023-05-17T10:49:25;9.63;;;2.60;;
19944;SDS011;10134;50.952;6.930;2023-05-17T10:51:56;10.00;;;2.75;;
19944;SDS011;10134;50.952;6.930;2023-05-17T10:54:35;6.72;;;2.20;;
19944;SDS011;10134;50.952;6.930;2023-05-17T10:57:05;10.65;;;2.65;;
19944;SDS011;10134;50.952;6.930;2023-05-17T10:59:34;11.98;;;3.08;;
19944;SDS011;10134;50.952;6.930;2023-05-17T11:02:22;8.52;;;2.60;;
19944;SDS011;10134;50.952;6.930;2023-05-17T11:04:50;6.93;;;2.42;;
19944;SDS011;10134;50.952;6.930;2023-05-17T11:07:26;8.48;;;2.60;;
19944;SDS011;10134;50.952;6.930;2023-05-17T11:12:43;5.63;;;1.90;;
19944;SDS011;10134;50.952;6.930;2023-05-17T11:15:13;5.72;;;1.95;;
19944;SDS011;10134;50.952;6.930;2023-05-17T11:20:28;13.40;;;3.40;;
19944;SDS011;10134;50.952;6.930;2023-05-17T11:22:59;5.53;;;2.15;;
19944;SDS011;10134;50.952;6.930;2023-05-17T11:25:35;7.00;;;2.15;;
19944;SDS011;10134;50.952;6.930;2023-05-17T11:28:07;8.45;;;2.00;;
19944;SDS011;10134;50.952;6.930;2023-05-17T11:30:45;10.20;;;2.40;;
19944;SDS011;10134;50.952;6.930;2023-05-17T11:33:20;8.30;;;2.00;;
19944;SDS011;10134;50.952;6.930;2023-05-17T11:36:05;8.77;;;2.40;;
19944;SDS011;10134;50.952;6.930;2023-05-17T11:38:47;6.03;;;1.90;;
19944;SDS011;10134;50.952;6.930;2023-05-17T11:41:27;5.60;;;1.70;;
19944;SDS011;10134;50.952;6.930;2023-05-17T11:43:54;11.10;;;2.72;;
19944;SDS011;10134;50.952;6.930;2023-05-17T11:46:22;8.38;;;2.38;;
19944;SDS011;10134;50.952;6.930;2023-05-17T11:48:50;7.93;;;2.45;;
19944;SDS011;10134;50.952;6.930;2023-05-17T11:51:19;7.00;;;2.60;;
19944;SDS011;10134;50.952;6.930;2023-05-17T11:53:54;5.32;;;2.63;;
19944;SDS011;10134;50.952;6.930;2023-05-17T11:56:22;7.57;;;2.58;;
19944;SDS011;10134;50.952;6.930;2023-05-17T11:59:02;7.68;;;2.15;;
19944;SDS011;10134;50.952;6.930;2023-05-17T12:01:43;8.95;;;2.25;;
19944;SDS011;10134;50.952;6.930;2023-05-17T12:04:12;6.60;;;2.60;;
19944;SDS011;10134;50.952;6.930;2023-05-17T12:06:40;4.60;;;2.10;;
19944;SDS011;10134;50.952;6.930;2023-05-17T12:09:10;9.77;;;2.70;;
19944;SDS011;10134;50.952;6.930;2023-05-17T12:11:43;8.90;;;2.38;;
19944;SDS011;10134;50.952;6.930;2023-05-17T12:14:13;9.43;;;2.65;;
19944;SDS011;10134;50.952;6.930;2023-05-17T12:17:00;6.35;;;2.13;;
19944;SDS011;10134;50.952;6.930;2023-05-17T12:19:31;4.68;;;2.25;;
19944;SDS011;10134;50.952;6.930;2023-05-17T12:22:05;10.00;;;2.72;;
19944;SDS011;10134;50.952;6.930;2023-05-17T12:24:37;6.03;;;2.42;;
19944;SDS011;10134;50.952;6.930;2023-05-17T12:27:06;6.15;;;2.83;;
19944;SDS011;10134;50.952;6.930;2023-05-17T12:29:35;8.13;;;2.25;;
19944;SDS011;10134;50.952;6.930;2023-05-17T12:32:02;6.25;;;2.50;;
19944;SDS011;10134;50.952;6.930;2023-05-17T12:34:31;7.72;;;2.40;;
19944;SDS011;10134;50.952;6.930;2023-05-17T12:36:59;7.85;;;3.28;;
19944;SDS011;10134;50.952;6.930;2023-05-17T12:39:26;7.68;;;2.80;;
19944;SDS011;10134;50.952;6.930;2023-05-17T12:41:56;5.70;;;2.55;;
19944;SDS011;10134;50.952;6.930;2023-05-17T12:44:23;7.43;;;2.35;;
19944;SDS011;10134;50.952;6.930;2023-05-17T12:46:52;7.90;;;2.72;;
19944;SDS011;10134;50.952;6.930;2023-05-17T12:49:22;9.65;;;2.85;;
19944;SDS011;10134;50.952;6.930;2023-05-17T12:51:49;11.00;;;2.72;;
19944;SDS011;10134;50.952;6.930;2023-05-17T12:56:50;7.72;;;2.63;;
19944;SDS011;10134;50.952;6.930;2023-05-17T12:59:19;6.18;;;2.75;;
19944;SDS011;10134;50.952;6.930;2023-05-17T13:01:48;10.85;;;2.47;;
19944;SDS011;10134;50.952;6.930;2023-05-17T13:04:18;12.75;;;3.53;;
19944;SDS011;10134;50.952;6.930;2023-05-17T13:06:50;14.15;;;2.85;;
19944;SDS011;10134;50.952;6.930;2023-05-17T13:09:19;10.02;;;2.58;;
19944;SDS011;10134;50.952;6.930;2023-05-17T13:11:50;6.85;;;2.22;;
19944;SDS011;10134;50.952;6.930;2023-05-17T13:14:35;7.13;;;2.67;;
19944;SDS011;10134;50.952;6.930;2023-05-17T13:19:46;4.43;;;2.15;;
19944;SDS011;10134;50.952;6.930;2023-05-17T13:22:14;10.90;;;2.55;;
19944;SDS011;10134;50.952;6.930;2023-05-17T13:24:42;7.97;;;3.20;;
19944;SDS011;10134;50.952;6.930;2023-05-17T13:27:11;7.25;;;2.20;;
19944;SDS011;10134;50.952;6.930;2023-05-17T13:29:39;33.30;;;4.72;;
19944;SDS011;10134;50.952;6.930;2023-05-17T13:32:08;18.92;;;3.55;;
19944;SDS011;10134;50.952;6.930;2023-05-17T13:34:37;6.68;;;3.00;;
19944;SDS011;10134;50.952;6.930;2023-05-17T13:37:06;18.52;;;3.95;;
19944;SDS011;10134;50.952;6.930;2023-05-17T13:39:39;15.97;;;3.40;;
19944;SDS011;10134;50.952;6.930;2023-05-17T13:42:07;8.50;;;3.00;;
19944;SDS011;10134;50.952;6.930;2023-05-17T13:44:36;9.10;;;2.70;;
19944;SDS011;10134;50.952;6.930;2023-05-17T13:47:04;13.65;;;3.03;;
19944;SDS011;10134;50.952;6.930;2023-05-17T13:49:33;5.57;;;3.05;;
19944;SDS011;10134;50.952;6.930;2023-05-17T13:52:00;12.32;;;2.58;;
19944;SDS011;10134;50.952;6.930;2023-05-17T13:54:27;12.07;;;2.10;;
19944;SDS011;10134;50.952;6.930;2023-05-17T13:56:55;17.45;;;3.20;;
19944;SDS011;10134;50.952;6.930;2023-05-17T13:59:23;6.10;;;2.42;;
19944;SDS011;10134;50.952;6.930;2023-05-17T14:01:50;6.72;;;2.35;;
19944;SDS011;10134;50.952;6.930;2023-05-17T14:04:18;5.45;;;2.70;;
19944;SDS011;10134;50.952;6.930;2023-05-17T14:06:47;10.63;;;3.08;;
19944;SDS011;10134;50.952;6.930;2023-05-17T14:09:17;12.25;;;2.78;;
19944;SDS011;10134;50.952;6.930;2023-05-17T14:11:44;11.35;;;2.47;;
19944;SDS011;10134;50.952;6.930;2023-05-17T14:14:12;11.05;;;2.42;;
19944;SDS011;10134;50.952;6.930;2023-05-17T14:16:39;7.53;;;2.40;;
19944;SDS011;10134;50.952;6.930;2023-05-17T14:19:07;14.63;;;2.97;;
19944;SDS011;10134;50.952;6.930;2023-05-17T14:21:34;6.57;;;2.10;;
19944;SDS011;10134;50.952;6.930;2023-05-17T14:24:02;17.42;;;3.25;;
19944;SDS011;10134;50.952;6.930;2023-05-17T14:26:29;5.40;;;1.60;;
19944;SDS011;10134;50.952;6.930;2023-05-17T14:28:56;8.68;;;2.30;;
19944;SDS011;10134;50.952;6.930;2023-05-17T14:31:25;5.28;;;1.85;;
19944;SDS011;10134;50.952;6.930;2023-05-17T14:33:54;9.63;;;2.22;;
19944;SDS011;10134;50.952;6.930;2023-05-17T14:36:21;7.05;;;1.30;;
19944;SDS011;10134;50.952;6.930;2023-05-17T14:38:48;6.25;;;1.77;;
19944;SDS011;10134;50.952;6.930;2023-05-17T14:41:16;2.95;;;1.40;;
19944;SDS011;10134;50.952;6.930;2023-05-17T14:43:44;7.60;;;1.67;;
19944;SDS011;10134;50.952;6.930;2023-05-17T14:46:11;5.30;;;2.20;;
19944;SDS011;10134;50.952;6.930;2023-05-17T14:48:40;9.13;;;1.45;;
19944;SDS011;10134;50.952;6.930;2023-05-17T14:51:07;7.60;;;1.55;;
19944;SDS011;10134;50.952;6.930;2023-05-17T14:53:35;25.25;;;3.22;;
19944;SDS011;10134;50.952;6.930;2023-05-17T14:56:03;6.10;;;2.22;;
19944;SDS011;10134;50.952;6.930;2023-05-17T14:58:30;6.47;;;1.73;;
19944;SDS011;10134;50.952;6.930;2023-05-17T15:00:57;8.80;;;1.83;;
19944;SDS011;10134;50.952;6.930;2023-05-17T15:03:31;5.20;;;1.63;;
19944;SDS011;10134;50.952;6.930;2023-05-17T15:05:59;3.78;;;1.35;;
19944;SDS011;10134;50.952;6.930;2023-05-17T15:08:30;5.10;;;2.40;;
19944;SDS011;10134;50.952;6.930;2023-05-17T15:10:57;7.75;;;1.95;;
19944;SDS011;10134;50.952;6.930;2023-05-17T15:13:24;7.78;;;1.60;;
19944;SDS011;10134;50.952;6.930;2023-05-17T15:15:52;4.80;;;1.60;;
19944;SDS011;10134;50.952;6.930;2023-05-17T15:18:19;6.55;;;2.13;;
19944;SDS011;10134;50.952;6.930;2023-05-17T15:20:47;3.17;;;1.38;;